createdAt,value
2022-10-08T00:01:24.670Z,101682.66
2022-10-08T00:03:53.254Z,101684.16
2022-10-08T00:06:25.486Z,101682.84
2022-10-08T00:08:54.736Z,101675.00
2022-10-08T00:11:24.346Z,101672.16
2022-10-08T00:13:52.822Z,101682.53
2022-10-08T00:16:34.604Z,101687.22
2022-10-08T00:19:04.974Z,101681.56
2022-10-08T00:21:35.025Z,101693.06
2022-10-08T00:24:02.766Z,101696.03
2022-10-08T00:26:31.522Z,101694.63
2022-10-08T00:29:04.370Z,101693.22
2022-10-08T00:31:34.215Z,101698.75
2022-10-08T00:34:03.289Z,101700.28
2022-10-08T00:36:32.284Z,101696.00
2022-10-08T00:39:00.674Z,101688.50
2022-10-08T00:41:29.595Z,101683.63
2022-10-08T00:43:58.916Z,101677.88
2022-10-08T00:46:31.360Z,101673.16
2022-10-08T00:49:11.285Z,101676.97
2022-10-08T00:51:41.613Z,101675.78
2022-10-08T00:54:08.259Z,101678.84
2022-10-08T00:56:37.462Z,101682.53
2022-10-08T00:59:05.494Z,101691.47
2022-10-08T01:01:32.289Z,101684.91
2022-10-08T01:04:04.032Z,101677.31
2022-10-08T01:06:39.049Z,101667.94
2022-10-08T01:09:21.640Z,101670.22
2022-10-08T01:11:56.035Z,101672.09
2022-10-08T01:14:51.174Z,101677.22
2022-10-08T01:17:31.442Z,101675.13
2022-10-08T01:20:29.520Z,101671.44
2022-10-08T01:22:58.970Z,101676.66
2022-10-08T01:25:38.095Z,101678.50
2022-10-08T01:28:07.358Z,101674.03
2022-10-08T01:30:38.743Z,101676.66
2022-10-08T01:33:43.064Z,101666.78
2022-10-08T01:36:12.957Z,101671.09
2022-10-08T01:38:44.912Z,101672.50
2022-10-08T01:41:13.604Z,101675.56
2022-10-08T01:43:44.718Z,101677.00
2022-10-08T01:46:17.939Z,101666.09
2022-10-08T01:48:45.113Z,101666.44
2022-10-08T01:51:18.088Z,101671.78
2022-10-08T01:53:46.765Z,101673.63
2022-10-08T01:56:18.433Z,101678.41
2022-10-08T01:58:55.034Z,101674.69
2022-10-08T02:01:34.878Z,101671.84
2022-10-08T02:04:20.091Z,101674.94
2022-10-08T02:06:51.260Z,101676.63
2022-10-08T02:09:18.505Z,101676.63
2022-10-08T02:11:45.255Z,101685.03
2022-10-08T02:14:11.900Z,101685.03
2022-10-08T02:16:43.744Z,101687.41
2022-10-08T02:19:19.240Z,101694.94
2022-10-08T02:21:46.095Z,101699.63
2022-10-08T02:24:18.560Z,101694.28
2022-10-08T02:26:49.530Z,101698.22
2022-10-08T02:29:30.720Z,101702.00
2022-10-08T02:32:04.492Z,101697.22
2022-10-08T02:34:38.279Z,101699.16
2022-10-08T02:37:13.126Z,101686.25
2022-10-08T02:39:43.981Z,101695.91
2022-10-08T02:42:15.277Z,101694.25
2022-10-08T02:44:48.173Z,101694.25
2022-10-08T02:47:18.389Z,101691.97
2022-10-08T02:49:51.650Z,101686.00
2022-10-08T02:52:20.329Z,101694.38
2022-10-08T02:54:48.614Z,101700.78
2022-10-08T02:57:43.353Z,101694.03
2022-10-08T03:00:10.796Z,101702.50
2022-10-08T03:02:43.359Z,101699.91
2022-10-08T03:05:16.765Z,101701.38
2022-10-08T03:07:44.292Z,101696.09
2022-10-08T03:10:12.725Z,101709.81
2022-10-08T03:12:39.709Z,101699.47
2022-10-08T03:15:08.551Z,101701.22
2022-10-08T03:17:41.632Z,101697.84
2022-10-08T03:20:10.358Z,101703.25
2022-10-08T03:22:37.302Z,101710.44
2022-10-08T03:25:04.844Z,101703.44
2022-10-08T03:27:31.410Z,101711.72
2022-10-08T03:29:57.974Z,101712.47
2022-10-08T03:32:25.279Z,101712.16
2022-10-08T03:34:51.973Z,101711.81
2022-10-08T03:37:19.160Z,101713.81
2022-10-08T03:39:45.834Z,101717.94
2022-10-08T03:42:13.299Z,101721.88
2022-10-08T03:44:39.890Z,101724.63
2022-10-08T03:47:06.426Z,101731.38
2022-10-08T03:49:33.034Z,101725.69
2022-10-08T03:51:59.565Z,101729.06
2022-10-08T03:54:26.086Z,101741.34
2022-10-08T03:56:52.628Z,101740.34
2022-10-08T03:59:19.208Z,101742.00
2022-10-08T04:01:45.815Z,101745.94
2022-10-08T04:04:12.354Z,101752.44
2022-10-08T04:06:38.991Z,101749.38
2022-10-08T04:09:05.515Z,101751.66
2022-10-08T04:11:32.164Z,101748.72
2022-10-08T04:14:00.304Z,101754.84
2022-10-08T04:16:26.882Z,101752.25
2022-10-08T04:18:53.526Z,101753.81
2022-10-08T04:21:20.941Z,101755.22
2022-10-08T04:23:50.094Z,101758.50
2022-10-08T04:26:17.449Z,101752.69
2022-10-08T04:28:45.308Z,101757.56
2022-10-08T04:31:17.545Z,101756.25
2022-10-08T04:33:46.031Z,101759.03
2022-10-08T04:36:30.653Z,101758.59
2022-10-08T04:38:57.170Z,101764.88
2022-10-08T04:41:25.876Z,101763.81
2022-10-08T04:43:53.816Z,101763.50
2022-10-08T04:46:22.409Z,101766.00
2022-10-08T04:48:51.727Z,101759.09
2022-10-08T04:51:19.364Z,101761.25
2022-10-08T04:53:46.249Z,101769.25
2022-10-08T04:56:20.798Z,101770.94
2022-10-08T04:58:47.988Z,101768.53
2022-10-08T05:01:17.407Z,101772.03
2022-10-08T05:03:47.591Z,101775.72
2022-10-08T05:06:17.676Z,101780.03
2022-10-08T05:08:45.554Z,101786.69
2022-10-08T05:11:12.859Z,101786.53
2022-10-08T05:13:40.187Z,101788.22
2022-10-08T05:16:09.563Z,101786.22
2022-10-08T05:18:36.728Z,101798.81
2022-10-08T05:21:11.685Z,101790.72
2022-10-08T05:23:38.865Z,101793.97
2022-10-08T05:26:15.902Z,101809.16
2022-10-08T05:28:43.911Z,101808.41
2022-10-08T05:31:10.642Z,101813.94
2022-10-08T05:33:37.271Z,101817.03
2022-10-08T05:36:06.437Z,101812.19
2022-10-08T05:38:35.119Z,101820.13
2022-10-08T05:41:14.341Z,101825.03
2022-10-08T05:43:43.619Z,101827.94
2022-10-08T05:46:11.340Z,101834.09
2022-10-08T05:48:38.633Z,101837.47
2022-10-08T05:51:11.019Z,101842.84
2022-10-08T05:53:38.829Z,101840.25
2022-10-08T05:56:11.908Z,101848.69
2022-10-08T05:58:39.746Z,101851.31
2022-10-08T06:01:10.027Z,101847.16
2022-10-08T06:03:36.558Z,101853.72
2022-10-08T06:06:05.905Z,101862.00
2022-10-08T06:08:33.791Z,101861.41
2022-10-08T06:11:01.132Z,101862.00
2022-10-08T06:13:27.965Z,101869.97
2022-10-08T06:16:09.024Z,101874.44
2022-10-08T06:18:40.868Z,101885.31
2022-10-08T06:21:10.176Z,101890.94
2022-10-08T06:23:37.336Z,101902.75
2022-10-08T06:26:06.943Z,101901.50
2022-10-08T06:28:35.399Z,101907.47
2022-10-08T06:31:02.624Z,101924.91
2022-10-08T06:33:29.978Z,101923.53
2022-10-08T06:35:57.858Z,101934.72
2022-10-08T06:38:24.493Z,101931.03
2022-10-08T06:40:51.032Z,101937.13
2022-10-08T06:43:19.405Z,101940.69
2022-10-08T06:45:46.952Z,101940.53
2022-10-08T06:48:14.072Z,101943.69
2022-10-08T06:50:42.202Z,101952.59
2022-10-08T06:53:10.559Z,101953.06
2022-10-08T06:55:37.415Z,101963.19
2022-10-08T06:58:05.418Z,101956.44
2022-10-08T07:00:32.725Z,101964.44
2022-10-08T07:02:59.318Z,101970.53
2022-10-08T07:05:25.889Z,101973.31
2022-10-08T07:07:52.425Z,101975.44
2022-10-08T07:10:18.973Z,101982.41
2022-10-08T07:12:45.982Z,101980.06
2022-10-08T07:15:12.752Z,101988.66
2022-10-08T07:17:39.338Z,101980.84
2022-10-08T07:20:06.692Z,101998.47
2022-10-08T07:22:33.445Z,101993.88
2022-10-08T07:25:01.543Z,102000.59
2022-10-08T07:27:28.344Z,102004.28
2022-10-08T07:29:54.918Z,102007.69
2022-10-08T07:32:21.628Z,102003.69
2022-10-08T07:34:48.164Z,102006.47
2022-10-08T07:37:14.739Z,102009.97
2022-10-08T07:39:41.255Z,102015.84
2022-10-08T07:42:07.771Z,102016.75
2022-10-08T07:44:34.419Z,102023.03
2022-10-08T07:47:01.028Z,102027.31
2022-10-08T07:49:27.736Z,102025.03
2022-10-08T07:51:54.347Z,102036.56
2022-10-08T07:54:21.119Z,102045.41
2022-10-08T07:56:48.185Z,102036.97
2022-10-08T07:59:16.200Z,102041.59
2022-10-08T08:01:43.984Z,102043.44
2022-10-08T08:04:12.057Z,102046.00
2022-10-08T08:06:42.315Z,102049.09
2022-10-08T08:09:09.958Z,102060.59
2022-10-08T08:11:36.995Z,102059.66
2022-10-08T08:14:03.913Z,102075.78
2022-10-08T08:16:30.731Z,102071.34
2022-10-08T08:18:59.844Z,102077.75
2022-10-08T08:21:37.562Z,102077.16
2022-10-08T08:24:12.575Z,102077.94
2022-10-08T08:26:41.459Z,102082.22
2022-10-08T08:29:11.249Z,102077.28
2022-10-08T08:31:40.537Z,102093.41
2022-10-08T08:34:09.959Z,102097.25
2022-10-08T08:36:39.467Z,102100.31
2022-10-08T08:39:07.980Z,102104.59
2022-10-08T08:41:53.281Z,102106.53
2022-10-08T08:44:59.935Z,102114.72
2022-10-08T08:47:34.765Z,102108.66
2022-10-08T08:50:23.717Z,102122.81
2022-10-08T08:52:50.699Z,102131.84
2022-10-08T08:55:20.077Z,102123.38
2022-10-08T08:57:58.348Z,102131.13
2022-10-08T09:00:33.059Z,102127.09
2022-10-08T09:02:59.570Z,102130.63
2022-10-08T09:05:28.599Z,102133.75
2022-10-08T09:08:13.220Z,102128.50
2022-10-08T09:10:47.653Z,102136.75
2022-10-08T09:13:18.976Z,102135.41
2022-10-08T09:15:46.917Z,102154.13
2022-10-08T09:18:15.552Z,102151.06
2022-10-08T09:20:42.608Z,102145.75
2022-10-08T09:23:15.371Z,102138.53
2022-10-08T09:25:44.255Z,102145.06
2022-10-08T09:28:11.148Z,102157.63
2022-10-08T09:30:41.147Z,102144.78
2022-10-08T09:33:08.032Z,102158.38
2022-10-08T09:35:35.077Z,102153.50
2022-10-08T09:38:05.641Z,102171.25
2022-10-08T09:40:32.678Z,102166.97
2022-10-08T09:43:17.693Z,102156.03
2022-10-08T09:45:46.775Z,102156.16
2022-10-08T09:48:29.664Z,102166.69
2022-10-08T09:51:01.362Z,102170.09
2022-10-08T09:53:34.703Z,102165.50
2022-10-08T09:56:04.757Z,102176.19
2022-10-08T09:58:33.863Z,102187.84
2022-10-08T10:01:21.073Z,102201.72
2022-10-08T10:03:56.398Z,102205.13
2022-10-08T10:06:25.907Z,102215.59
2022-10-08T10:09:03.398Z,102217.41
2022-10-08T10:11:50.599Z,102212.88
2022-10-08T10:14:25.690Z,102222.66
2022-10-08T10:17:04.092Z,102223.50
2022-10-08T10:19:38.337Z,102219.00
2022-10-08T10:22:17.151Z,102214.88
2022-10-08T10:25:05.584Z,102211.56
2022-10-08T10:27:58.589Z,102212.31
2022-10-08T10:30:26.161Z,102217.84
2022-10-08T10:33:03.798Z,102219.22
2022-10-08T10:35:39.569Z,102219.78
2022-10-08T10:38:27.899Z,102217.13
2022-10-08T10:41:26.408Z,102228.47
2022-10-08T10:44:14.152Z,102237.25
2022-10-08T10:46:44.660Z,102232.63
2022-10-08T10:49:21.252Z,102237.97
2022-10-08T10:51:56.168Z,102244.84
2022-10-08T10:55:13.741Z,102241.78
2022-10-08T10:57:49.353Z,102240.97
2022-10-08T11:00:32.402Z,102242.56
2022-10-08T11:02:58.888Z,102252.56
2022-10-08T11:05:27.670Z,102251.75
2022-10-08T11:08:22.397Z,102244.81
2022-10-08T11:11:14.918Z,102248.28
2022-10-08T11:13:54.385Z,102249.75
2022-10-08T11:16:57.555Z,102256.13
2022-10-08T11:19:55.696Z,102256.28
2022-10-08T11:22:35.141Z,102257.03
2022-10-08T11:25:19.338Z,102258.47
2022-10-08T11:27:57.586Z,102251.00
2022-10-08T11:30:29.531Z,102254.66
2022-10-08T11:32:57.136Z,102250.69
2022-10-08T11:35:40.873Z,102260.69
2022-10-08T11:38:29.286Z,102257.69
2022-10-08T11:41:02.823Z,102253.91
2022-10-08T11:43:33.775Z,102259.19
2022-10-08T11:46:31.706Z,102257.06
2022-10-08T11:49:04.567Z,102257.19
2022-10-08T11:51:34.146Z,102259.94
2022-10-08T11:54:15.893Z,102256.78
2022-10-08T11:56:48.656Z,102261.31
2022-10-08T11:59:44.126Z,102264.84
2022-10-08T12:02:28.113Z,102268.03
2022-10-08T12:04:57.899Z,102268.91
2022-10-08T12:07:39.654Z,102268.88
2022-10-08T12:10:06.227Z,102269.03
2022-10-08T12:12:51.663Z,102273.72
2022-10-08T12:15:43.088Z,102272.28
2022-10-08T12:18:25.776Z,102273.13
2022-10-08T12:21:17.743Z,102274.16
2022-10-08T12:23:45.233Z,102271.13
2022-10-08T12:26:15.193Z,102264.97
2022-10-08T12:28:50.670Z,102268.03
2022-10-08T12:31:26.833Z,102266.47
2022-10-08T12:34:18.127Z,102259.19
2022-10-08T12:36:55.275Z,102261.94
2022-10-08T12:39:35.138Z,102254.06
2022-10-08T12:42:21.288Z,102251.00
2022-10-08T12:45:04.242Z,102267.72
2022-10-08T12:47:46.025Z,102269.09
2022-10-08T12:50:37.824Z,102262.44
2022-10-08T12:53:06.134Z,102267.03
2022-10-08T12:55:44.293Z,102262.03
2022-10-08T12:58:17.998Z,102273.22
2022-10-08T13:00:49.412Z,102276.06
2022-10-08T13:03:17.680Z,102273.00
2022-10-08T13:05:44.431Z,102270.19
2022-10-08T13:08:37.959Z,102270.88
2022-10-08T13:11:09.044Z,102287.78
2022-10-08T13:13:52.593Z,102281.47
2022-10-08T13:16:22.104Z,102292.69
2022-10-08T13:18:54.533Z,102283.47
2022-10-08T13:21:26.286Z,102288.53
2022-10-08T13:23:55.467Z,102289.63
2022-10-08T13:26:40.547Z,102294.47
2022-10-08T13:29:22.539Z,102302.03
2022-10-08T13:31:58.263Z,102287.91
2022-10-08T13:34:30.837Z,102298.09
2022-10-08T13:37:01.544Z,102302.59
2022-10-08T13:39:33.362Z,102300.19
2022-10-08T13:42:03.082Z,102300.00
2022-10-08T13:44:31.175Z,102297.56
2022-10-08T13:47:03.343Z,102297.03
2022-10-08T13:49:30.447Z,102300.09
2022-10-08T13:51:58.825Z,102310.84
2022-10-08T13:54:31.563Z,102310.09
2022-10-08T13:56:58.569Z,102312.19
2022-10-08T13:59:30.384Z,102308.88
2022-10-08T14:01:57.596Z,102310.28
2022-10-08T14:04:25.840Z,102308.03
2022-10-08T14:06:55.448Z,102311.00
2022-10-08T14:09:26.095Z,102322.44
2022-10-08T14:11:57.125Z,102320.91
2022-10-08T14:14:26.901Z,102321.88
2022-10-08T14:16:54.242Z,102319.97
2022-10-08T14:19:21.428Z,102319.91
2022-10-08T14:21:50.370Z,102320.28
2022-10-08T14:24:16.950Z,102322.75
2022-10-08T14:26:43.784Z,102319.91
2022-10-08T14:29:10.419Z,102320.34
2022-10-08T14:31:39.693Z,102325.09
2022-10-08T14:34:07.188Z,102324.72
2022-10-08T14:36:36.671Z,102323.84
2022-10-08T14:39:04.761Z,102333.34
2022-10-08T14:41:32.835Z,102339.31
2022-10-08T14:43:59.912Z,102335.25
2022-10-08T14:46:26.657Z,102339.25
2022-10-08T14:48:53.665Z,102335.22
2022-10-08T14:51:20.806Z,102344.06
2022-10-08T14:53:47.642Z,102347.06
2022-10-08T14:56:14.371Z,102337.13
2022-10-08T14:58:40.991Z,102340.41
2022-10-08T15:01:07.755Z,102338.00
2022-10-08T15:03:34.618Z,102341.72
2022-10-08T15:06:01.299Z,102347.69
2022-10-08T15:08:28.477Z,102337.69
2022-10-08T15:10:55.270Z,102343.59
2022-10-08T15:13:21.873Z,102343.94
2022-10-08T15:15:48.676Z,102340.91
2022-10-08T15:18:15.689Z,102347.44
2022-10-08T15:20:42.635Z,102350.97
2022-10-08T15:23:10.554Z,102352.22
2022-10-08T15:25:41.705Z,102354.06
2022-10-08T15:28:08.286Z,102355.59
2022-10-08T15:30:35.005Z,102355.09
2022-10-08T15:33:05.103Z,102351.72
2022-10-08T15:35:35.303Z,102365.69
2022-10-08T15:38:01.996Z,102359.09
2022-10-08T15:40:32.079Z,102360.13
2022-10-08T15:42:58.775Z,102360.97
2022-10-08T15:45:25.702Z,102365.88
2022-10-08T15:47:52.375Z,102361.47
2022-10-08T15:50:18.902Z,102373.78
2022-10-08T15:52:46.597Z,102375.38
2022-10-08T15:55:13.475Z,102374.53
2022-10-08T15:57:40.023Z,102378.63
2022-10-08T16:00:07.499Z,102373.25
2022-10-08T16:02:34.104Z,102373.94
2022-10-08T16:05:00.716Z,102381.13
2022-10-08T16:07:27.271Z,102383.84
2022-10-08T16:09:54.946Z,102386.72
2022-10-08T16:12:21.554Z,102391.22
2022-10-08T16:14:48.507Z,102390.16
2022-10-08T16:17:15.194Z,102401.44
2022-10-08T16:19:42.433Z,102397.03
2022-10-08T16:22:09.656Z,102401.94
2022-10-08T16:24:36.381Z,102405.91
2022-10-08T16:27:03.833Z,102404.59
2022-10-08T16:29:34.629Z,102407.19
2022-10-08T16:32:01.433Z,102420.13
2022-10-08T16:34:33.399Z,102419.25
2022-10-08T16:37:01.755Z,102421.34
2022-10-08T16:39:28.591Z,102427.13
2022-10-08T16:41:55.260Z,102422.78
2022-10-08T16:44:22.238Z,102423.66
2022-10-08T16:46:51.590Z,102428.25
2022-10-08T16:49:25.997Z,102428.91
2022-10-08T16:52:05.306Z,102435.78
2022-10-08T16:54:32.951Z,102436.22
2022-10-08T16:57:00.975Z,102444.00
2022-10-08T16:59:29.063Z,102452.50
2022-10-08T17:01:58.675Z,102451.41
2022-10-08T17:04:27.897Z,102455.25
2022-10-08T17:06:54.847Z,102455.91
2022-10-08T17:09:21.953Z,102459.63
2022-10-08T17:11:48.741Z,102460.25
2022-10-08T17:14:15.767Z,102469.34
2022-10-08T17:16:45.280Z,102460.56
2022-10-08T17:19:17.562Z,102462.22
2022-10-08T17:21:44.840Z,102461.19
2022-10-08T17:24:12.750Z,102477.44
2022-10-08T17:26:40.279Z,102475.88
2022-10-08T17:29:10.658Z,102476.41
2022-10-08T17:31:37.810Z,102478.13
2022-10-08T17:34:07.854Z,102481.59
2022-10-08T17:36:45.045Z,102475.34
2022-10-08T17:39:15.588Z,102484.16
2022-10-08T17:41:43.715Z,102504.09
2022-10-08T17:44:11.800Z,102505.69
2022-10-08T17:46:47.486Z,102500.38
2022-10-08T17:49:16.439Z,102503.16
2022-10-08T17:51:43.217Z,102514.25
2022-10-08T17:54:19.814Z,102516.31
2022-10-08T17:56:47.757Z,102518.31
2022-10-08T17:59:23.381Z,102524.81
2022-10-08T18:01:53.260Z,102520.56
2022-10-08T18:04:21.364Z,102525.97
2022-10-08T18:06:49.201Z,102524.34
2022-10-08T18:09:20.958Z,102525.13
2022-10-08T18:11:52.047Z,102531.59
2022-10-08T18:14:20.002Z,102526.53
2022-10-08T18:16:48.343Z,102537.44
2022-10-08T18:19:16.316Z,102541.03
2022-10-08T18:21:45.679Z,102539.34
2022-10-08T18:24:15.174Z,102542.88
2022-10-08T18:26:41.765Z,102549.94
2022-10-08T18:29:14.057Z,102543.81
2022-10-08T18:31:42.653Z,102543.03
2022-10-08T18:34:16.019Z,102545.81
2022-10-08T18:36:42.980Z,102549.03
2022-10-08T18:39:18.304Z,102546.38
2022-10-08T18:41:50.155Z,102561.59
2022-10-08T18:44:20.491Z,102561.56
2022-10-08T18:46:48.450Z,102567.22
2022-10-08T18:49:18.464Z,102568.63
2022-10-08T18:51:46.053Z,102567.66
2022-10-08T18:54:15.468Z,102574.56
2022-10-08T18:56:43.622Z,102573.91
2022-10-08T18:59:15.789Z,102560.53
2022-10-08T19:01:46.553Z,102570.63
2022-10-08T19:04:17.037Z,102567.38
2022-10-08T19:06:45.407Z,102576.56
2022-10-08T19:09:15.507Z,102567.16
2022-10-08T19:11:46.377Z,102570.19
2022-10-08T19:14:16.083Z,102579.69
2022-10-08T19:16:44.635Z,102574.13
2022-10-08T19:19:17.243Z,102569.91
2022-10-08T19:21:44.772Z,102584.91
2022-10-08T19:24:20.753Z,102585.19
2022-10-08T19:26:48.509Z,102583.81
2022-10-08T19:29:17.834Z,102593.56
2022-10-08T19:31:50.322Z,102593.38
2022-10-08T19:34:20.032Z,102588.84
2022-10-08T19:36:47.202Z,102593.44
2022-10-08T19:39:17.255Z,102597.66
2022-10-08T19:41:45.132Z,102599.63
2022-10-08T19:44:16.795Z,102592.00
2022-10-08T19:46:43.968Z,102598.31
2022-10-08T19:49:14.532Z,102597.31
2022-10-08T19:51:43.314Z,102589.25
2022-10-08T19:54:14.481Z,102589.03
2022-10-08T19:56:43.453Z,102601.09
2022-10-08T19:59:14.412Z,102606.88
2022-10-08T20:01:42.323Z,102607.00
2022-10-08T20:04:09.852Z,102615.94
2022-10-08T20:06:40.765Z,102613.53
2022-10-08T20:09:15.993Z,102614.13
2022-10-08T20:11:44.843Z,102618.66
2022-10-08T20:14:15.826Z,102619.00
2022-10-08T20:16:43.286Z,102626.13
2022-10-08T20:19:21.207Z,102631.63
2022-10-08T20:21:51.675Z,102631.25
2022-10-08T20:24:19.259Z,102630.25
2022-10-08T20:26:46.465Z,102630.63
2022-10-08T20:29:15.617Z,102628.34
2022-10-08T20:31:46.452Z,102629.94
2022-10-08T20:34:17.817Z,102623.53
2022-10-08T20:36:48.536Z,102626.72
2022-10-08T20:39:17.120Z,102626.25
2022-10-08T20:41:44.359Z,102627.34
2022-10-08T20:44:18.787Z,102631.31
2022-10-08T20:46:45.722Z,102626.94
2022-10-08T20:49:13.249Z,102619.50
2022-10-08T20:51:41.994Z,102625.75
2022-10-08T20:54:11.775Z,102622.94
2022-10-08T20:56:40.312Z,102635.16
2022-10-08T20:59:09.156Z,102633.13
2022-10-08T21:01:41.050Z,102630.31
2022-10-08T21:04:08.825Z,102631.19
2022-10-08T21:06:44.536Z,102621.88
2022-10-08T21:09:11.873Z,102632.59
2022-10-08T21:11:42.423Z,102632.13
2022-10-08T21:14:10.091Z,102629.63
2022-10-08T21:16:40.246Z,102637.13
2022-10-08T21:19:13.309Z,102641.84
2022-10-08T21:21:40.933Z,102635.94
2022-10-08T21:24:07.904Z,102639.84
2022-10-08T21:26:39.846Z,102648.19
2022-10-08T21:29:08.865Z,102639.97
2022-10-08T21:31:38.099Z,102634.00
2022-10-08T21:34:06.633Z,102638.97
2022-10-08T21:36:39.727Z,102630.22
2022-10-08T21:39:09.140Z,102631.78
2022-10-08T21:41:37.208Z,102632.66
2022-10-08T21:44:06.505Z,102638.63
2022-10-08T21:46:36.613Z,102631.13
2022-10-08T21:49:17.494Z,102637.66
2022-10-08T21:51:45.274Z,102640.56
2022-10-08T21:54:12.576Z,102646.03
2022-10-08T21:56:42.229Z,102648.97
2022-10-08T21:59:12.278Z,102644.84
2022-10-08T22:01:41.604Z,102646.13
2022-10-08T22:04:15.477Z,102640.75
2022-10-08T22:06:45.251Z,102638.19
2022-10-08T22:09:18.412Z,102636.41
2022-10-08T22:11:45.682Z,102636.97
2022-10-08T22:14:14.742Z,102627.91
2022-10-08T22:16:41.630Z,102627.66
2022-10-08T22:19:08.537Z,102627.38
2022-10-08T22:21:35.424Z,102626.16
2022-10-08T22:24:02.446Z,102633.94
2022-10-08T22:26:34.894Z,102630.09
2022-10-08T22:29:01.741Z,102624.94
2022-10-08T22:31:28.659Z,102635.03
2022-10-08T22:33:55.427Z,102627.28
2022-10-08T22:36:30.477Z,102636.16
2022-10-08T22:38:58.513Z,102634.59
2022-10-08T22:41:31.071Z,102637.72
2022-10-08T22:43:58.827Z,102632.56
2022-10-08T22:46:28.497Z,102644.47
2022-10-08T22:49:01.783Z,102632.59
2022-10-08T22:51:29.304Z,102632.88
2022-10-08T22:53:56.285Z,102629.25
2022-10-08T22:56:26.009Z,102631.66
2022-10-08T22:58:53.078Z,102630.06
2022-10-08T23:01:21.805Z,102625.94
2022-10-08T23:03:49.426Z,102624.44
2022-10-08T23:06:24.497Z,102617.97
2022-10-08T23:08:57.434Z,102620.56
2022-10-08T23:11:24.463Z,102626.53
2022-10-08T23:13:52.940Z,102622.38
2022-10-08T23:16:20.383Z,102623.72
2022-10-08T23:18:53.065Z,102626.09
2022-10-08T23:21:19.601Z,102625.28
2022-10-08T23:23:47.650Z,102620.63
2022-10-08T23:26:14.957Z,102617.81
2022-10-08T23:28:42.538Z,102622.72
2022-10-08T23:31:18.070Z,102625.59
2022-10-08T23:33:47.548Z,102634.44
2022-10-08T23:36:19.719Z,102630.34
2022-10-08T23:38:46.632Z,102624.09
2022-10-08T23:41:13.535Z,102620.75
2022-10-08T23:43:42.590Z,102622.56
2022-10-08T23:46:11.467Z,102629.81
2022-10-08T23:48:38.403Z,102628.84
2022-10-08T23:51:06.293Z,102622.09
2022-10-08T23:53:33.506Z,102629.59
2022-10-08T23:56:00.345Z,102620.53
2022-10-08T23:58:26.987Z,102624.47
